Time;durP1;ratioP1;P1;durP2;ratioP2;P2;SDS_P1;SDS_P2;PMS_P1;PMS_P2;Temp;Humidity;BMP_temperature;BMP_pressure;BME280_temperature;BME280_humidity;BME280_pressure;Samples;Min_cycle;Max_cycle;Signal;HPM_P1;HPM_P2
2022/12/13 00:01:56;;;;;;;;;0.00;0.00;;;;;;;;5034562;28;29953;-94
2022/12/13 00:04:22;;;;;;;;;0.00;0.00;;;;;;;;5033821;28;28424;-95
2022/12/13 00:06:47;;;;;;;;;0.00;0.00;;;;;;;;5034217;28;28559;-95
2022/12/13 00:09:13;;;;;;;;;0.00;0.00;;;;;;;;5036374;28;28541;-94
2022/12/13 00:11:39;;;;;;;;;1.00;1.00;;;;;;;;5037679;28;29814;-94
2022/12/13 00:14:04;;;;;;;;;0.00;0.00;;;;;;;;5038153;28;29401;-95
2022/12/13 00:16:29;;;;;;;;;0.00;0.00;;;;;;;;5037661;28;28751;-94
2022/12/13 00:18:56;;;;;;;;;0.00;0.00;;;;;;;;5037568;28;28842;-95
2022/12/13 00:21:22;;;;;;;;;0.00;0.00;;;;;;;;5037252;28;30412;-94
2022/12/13 00:23:47;;;;;;;;;0.00;0.00;;;;;;;;5037840;28;28653;-95
2022/12/13 00:26:14;;;;;;;;;2.25;2.25;;;;;;;;5037804;28;28266;-94
2022/12/13 00:28:40;;;;;;;;;0.00;0.00;;;;;;;;5037609;28;28802;-94
2022/12/13 00:31:06;;;;;;;;;0.00;0.00;;;;;;;;5037587;28;29958;-95
2022/12/13 00:33:31;;;;;;;;;1.00;1.00;;;;;;;;5037215;28;28537;-95
2022/12/13 00:35:56;;;;;;;;;0.00;0.00;;;;;;;;5036741;28;28328;-94
2022/12/13 00:38:22;;;;;;;;;0.00;0.00;;;;;;;;5037420;28;28535;-94
2022/12/13 00:40:47;;;;;;;;;0.00;0.00;;;;;;;;5037377;28;30354;-94
2022/12/13 00:43:12;;;;;;;;;1.00;1.00;;;;;;;;5037769;28;28598;-94
2022/12/13 00:45:38;;;;;;;;;0.00;0.00;;;;;;;;5037772;28;28440;-96
2022/12/13 00:48:03;;;;;;;;;0.00;0.00;;;;;;;;5037402;28;28482;-94
2022/12/13 00:50:29;;;;;;;;;0.00;0.00;;;;;;;;5037711;28;30793;-93
2022/12/13 00:52:54;;;;;;;;;0.00;0.00;;;;;;;;5037578;28;28577;-94
2022/12/13 00:55:19;;;;;;;;;0.00;0.00;;;;;;;;5037902;28;27784;-94
2022/12/13 00:57:44;;;;;;;;;0.00;0.00;;;;;;;;5037038;28;28372;-95
2022/12/13 01:00:10;;;;;;;;;0.00;0.00;;;;;;;;5036392;28;29880;-95
2022/12/13 01:02:36;;;;;;;;;0.00;0.00;;;;;;;;5036737;28;28757;-95
2022/12/13 01:17:12;;;;;;;;;0.00;0.00;;;;;;;;5054612;28;27820;-95
2022/12/13 01:19:38;;;;;;;;;0.00;0.00;;;;;;;;5036076;28;28046;-95
2022/12/13 01:22:04;;;;;;;;;1.00;1.00;;;;;;;;5036920;28;30844;-95
2022/12/13 01:24:30;;;;;;;;;0.00;0.00;;;;;;;;5036208;28;28760;-94
2022/12/13 01:26:55;;;;;;;;;0.00;0.00;;;;;;;;5036623;28;27888;-95
2022/12/13 01:29:20;;;;;;;;;0.00;0.00;;;;;;;;5036679;28;28108;-95
2022/12/13 01:31:46;;;;;;;;;0.00;0.00;;;;;;;;5036385;28;29700;-95
2022/12/13 01:34:12;;;;;;;;;0.00;0.00;;;;;;;;5036843;28;28399;-96
2022/12/13 01:36:38;;;;;;;;;0.00;0.00;;;;;;;;5035999;28;28477;-95
2022/12/13 01:39:04;;;;;;;;;0.00;0.00;;;;;;;;5036827;28;28509;-94
2022/12/13 01:41:31;;;;;;;;;0.00;0.00;;;;;;;;5036308;28;30012;-94
2022/12/13 01:43:59;;;;;;;;;0.00;0.00;;;;;;;;5036721;28;28867;-94
2022/12/13 01:46:25;;;;;;;;;0.00;0.00;;;;;;;;5036213;28;28480;-95
2022/12/13 01:48:56;;;;;;;;;0.00;0.00;;;;;;;;5036708;28;28478;-95
2022/12/13 01:51:25;;;;;;;;;0.00;0.00;;;;;;;;5036673;28;30989;-94
2022/12/13 01:53:51;;;;;;;;;0.00;0.00;;;;;;;;5037748;28;28557;-94
2022/12/13 01:56:22;;;;;;;;;0.00;0.00;;;;;;;;5036942;28;28348;-93
2022/12/13 01:58:48;;;;;;;;;0.00;0.00;;;;;;;;5036502;28;28006;-95
2022/12/13 02:01:13;;;;;;;;;0.00;0.00;;;;;;;;5035623;28;30037;-95
2022/12/13 02:03:39;;;;;;;;;3.00;3.00;;;;;;;;5036896;28;28391;-94
2022/12/13 02:06:08;;;;;;;;;0.00;0.00;;;;;;;;5035782;28;28025;-95
2022/12/13 02:08:33;;;;;;;;;0.00;0.00;;;;;;;;5016323;28;27845;-94
2022/12/13 02:10:59;;;;;;;;;0.00;0.00;;;;;;;;5015992;28;31176;-94
2022/12/13 02:13:24;;;;;;;;;1.33;1.33;;;;;;;;5016156;28;29833;-95
2022/12/13 02:15:53;;;;;;;;;0.00;0.00;;;;;;;;5015974;28;28572;-96
2022/12/13 02:18:30;;;;;;;;;0.00;0.00;;;;;;;;5016160;28;28789;-95
2022/12/13 02:21:11;;;;;;;;;0.00;0.00;;;;;;;;5015507;28;30309;-94
2022/12/13 02:23:42;;;;;;;;;0.00;0.00;;;;;;;;5015742;28;28865;-94
2022/12/13 02:26:23;;;;;;;;;0.00;0.00;;;;;;;;5019978;28;28550;-94
2022/12/13 02:29:08;;;;;;;;;0.00;0.00;;;;;;;;5035531;28;28404;-94
2022/12/13 02:31:56;;;;;;;;;0.00;0.00;;;;;;;;4935507;28;30931;-93
2022/12/13 02:34:21;;;;;;;;;0.00;0.00;;;;;;;;4936818;28;30097;-95
2022/12/13 02:36:55;;;;;;;;;0.00;0.00;;;;;;;;4936204;28;28410;-96
2022/12/13 02:39:22;;;;;;;;;0.00;0.00;;;;;;;;4936814;28;28286;-95
2022/12/13 02:41:48;;;;;;;;;0.00;0.00;;;;;;;;4936319;28;30153;-95
2022/12/13 02:44:17;;;;;;;;;0.00;0.00;;;;;;;;4936484;28;28692;-96
2022/12/13 02:46:49;;;;;;;;;0.00;0.00;;;;;;;;4936352;28;28547;-94
2022/12/13 02:49:15;;;;;;;;;0.00;0.00;;;;;;;;4936782;28;28510;-95
2022/12/13 02:51:41;;;;;;;;;0.00;0.00;;;;;;;;4936518;28;30106;-93
2022/12/13 02:54:07;;;;;;;;;9.00;9.00;;;;;;;;4936738;28;29505;-95
2022/12/13 02:56:32;;;;;;;;;0.00;0.00;;;;;;;;4936346;28;28504;-95
2022/12/13 02:58:58;;;;;;;;;0.00;0.00;;;;;;;;4934709;28;27942;-94
2022/12/13 03:01:26;;;;;;;;;0.00;0.00;;;;;;;;4917589;28;30098;-94
2022/12/13 03:03:51;;;;;;;;;0.00;0.00;;;;;;;;4938317;28;29517;-95
2022/12/13 03:06:28;;;;;;;;;4.00;4.00;;;;;;;;4936145;28;28442;-95
2022/12/13 03:09:09;;;;;;;;;0.00;0.00;;;;;;;;4994735;28;28603;-95
2022/12/13 03:14:35;;;;;;;;;0.00;0.00;;;;;;;;5052858;28;27818;-95
2022/12/13 03:17:02;;;;;;;;;0.00;0.00;;;;;;;;5035098;28;28557;-95
2022/12/13 03:19:27;;;;;;;;;9.00;9.00;;;;;;;;5034792;28;28439;-94
2022/12/13 03:21:53;;;;;;;;;0.00;0.00;;;;;;;;5034721;28;30154;-95
2022/12/13 03:24:19;;;;;;;;;0.00;0.00;;;;;;;;5034921;28;28714;-94
2022/12/13 03:26:45;;;;;;;;;0.00;0.00;;;;;;;;5034110;28;28467;-94
2022/12/13 03:29:10;;;;;;;;;0.00;0.00;;;;;;;;5034660;28;28881;-94
2022/12/13 03:31:36;;;;;;;;;0.00;0.00;;;;;;;;5034735;28;30161;-95
2022/12/13 03:34:01;;;;;;;;;0.00;0.00;;;;;;;;5034754;28;28608;-95
2022/12/13 03:36:26;;;;;;;;;0.00;0.00;;;;;;;;5034219;28;28568;-95
2022/12/13 03:38:52;;;;;;;;;0.00;0.00;;;;;;;;5034088;28;28473;-95
2022/12/13 03:41:19;;;;;;;;;0.00;0.00;;;;;;;;5034470;28;30035;-96
2022/12/13 03:43:44;;;;;;;;;0.00;0.00;;;;;;;;5034766;28;29831;-95
2022/12/13 03:46:10;;;;;;;;;0.00;0.00;;;;;;;;5035295;28;28489;-95
2022/12/13 03:48:35;;;;;;;;;0.00;0.00;;;;;;;;5051345;28;27863;-95
2022/12/13 03:51:01;;;;;;;;;0.00;0.00;;;;;;;;5034892;28;30161;-95
2022/12/13 03:53:27;;;;;;;;;0.00;0.00;;;;;;;;5034459;28;28904;-95
2022/12/13 03:55:52;;;;;;;;;0.00;0.00;;;;;;;;5034043;28;27922;-96
2022/12/13 03:58:17;;;;;;;;;0.00;0.00;;;;;;;;5034786;28;28674;-95
2022/12/13 04:00:43;;;;;;;;;0.00;0.00;;;;;;;;5034543;28;30048;-94
2022/12/13 04:03:08;;;;;;;;;0.00;0.00;;;;;;;;5035199;28;28773;-95
2022/12/13 04:05:33;;;;;;;;;0.00;0.00;;;;;;;;5034652;28;28501;-95
2022/12/13 04:07:58;;;;;;;;;0.00;0.00;;;;;;;;5034038;28;28384;-95
2022/12/13 04:10:24;;;;;;;;;15.00;15.00;;;;;;;;5033797;28;29931;-95
2022/12/13 04:15:33;;;;;;;;;0.00;0.00;;;;;;;;5052061;28;28395;-96
2022/12/13 04:17:58;;;;;;;;;0.75;0.75;;;;;;;;5033878;28;27955;-95
2022/12/13 04:20:23;;;;;;;;;0.00;0.00;;;;;;;;5033920;28;29752;-95
2022/12/13 04:22:49;;;;;;;;;0.00;0.00;;;;;;;;5033567;28;28450;-96
2022/12/13 04:25:14;;;;;;;;;0.00;0.00;;;;;;;;5033972;28;28332;-96
2022/12/13 04:27:39;;;;;;;;;0.00;0.00;;;;;;;;5033614;28;28190;-95
2022/12/13 04:30:05;;;;;;;;;0.00;0.00;;;;;;;;5034157;28;30275;-95
2022/12/13 04:32:30;;;;;;;;;0.00;0.00;;;;;;;;5034028;28;29355;-95
2022/12/13 04:34:55;;;;;;;;;0.00;0.00;;;;;;;;5034050;28;28506;-95
2022/12/13 04:37:21;;;;;;;;;0.00;0.00;;;;;;;;5033669;28;27954;-95
2022/12/13 04:39:46;;;;;;;;;0.00;0.00;;;;;;;;5034084;28;31005;-95
2022/12/13 04:42:11;;;;;;;;;0.00;0.00;;;;;;;;5034001;28;28462;-96
2022/12/13 04:44:37;;;;;;;;;3.00;3.00;;;;;;;;5035489;28;28289;-95
2022/12/13 04:47:02;;;;;;;;;0.00;0.00;;;;;;;;5034254;28;28384;-95
2022/12/13 04:49:30;;;;;;;;;0.00;0.00;;;;;;;;5033153;28;30867;-94
2022/12/13 04:51:56;;;;;;;;;0.00;0.00;;;;;;;;5033482;28;29622;-94
2022/12/13 04:54:21;;;;;;;;;0.00;0.00;;;;;;;;5034031;28;28498;-94
2022/12/13 04:56:46;;;;;;;;;0.00;0.00;;;;;;;;5036574;28;28637;-96
2022/12/13 04:59:12;;;;;;;;;0.00;0.00;;;;;;;;5037504;28;29891;-94
2022/12/13 05:01:37;;;;;;;;;0.00;0.00;;;;;;;;5033789;28;28757;-95
2022/12/13 05:04:02;;;;;;;;;0.00;0.00;;;;;;;;5038072;28;28469;-94
2022/12/13 05:06:28;;;;;;;;;0.00;0.00;;;;;;;;5038463;28;28546;-94
2022/12/13 05:08:53;;;;;;;;;0.00;0.00;;;;;;;;5037437;28;30114;-95
2022/12/13 05:11:19;;;;;;;;;0.00;0.00;;;;;;;;5036581;28;28430;-95
2022/12/13 05:13:44;;;;;;;;;0.00;0.00;;;;;;;;5036997;28;28479;-95
2022/12/13 05:16:09;;;;;;;;;0.00;0.00;;;;;;;;5036431;28;28429;-94
2022/12/13 05:18:35;;;;;;;;;0.00;0.00;;;;;;;;5036706;28;29762;-95
2022/12/13 05:21:05;;;;;;;;;0.00;0.00;;;;;;;;5036325;28;28661;-94
2022/12/13 05:23:30;;;;;;;;;0.00;0.00;;;;;;;;5036633;28;28984;-94
2022/12/13 05:25:56;;;;;;;;;0.00;0.00;;;;;;;;5036360;28;28615;-94
2022/12/13 05:28:24;;;;;;;;;0.00;0.00;;;;;;;;5036420;28;29991;-95
2022/12/13 05:30:50;;;;;;;;;0.00;0.00;;;;;;;;5036633;28;29510;-95
2022/12/13 05:33:15;;;;;;;;;0.00;0.00;;;;;;;;5036944;28;28468;-95
2022/12/13 05:35:40;;;;;;;;;0.00;0.00;;;;;;;;5036622;28;28600;-95
2022/12/13 05:38:05;;;;;;;;;0.00;0.00;;;;;;;;5035955;28;31190;-96
2022/12/13 05:40:30;;;;;;;;;3.50;3.50;;;;;;;;5036393;28;29792;-95
2022/12/13 05:42:56;;;;;;;;;0.00;0.00;;;;;;;;5036917;28;28380;-95
2022/12/13 05:45:21;;;;;;;;;0.00;0.00;;;;;;;;5036529;28;28372;-95
2022/12/13 05:47:47;;;;;;;;;0.00;0.00;;;;;;;;5036271;28;29777;-95
2022/12/13 05:50:12;;;;;;;;;0.00;0.00;;;;;;;;5036517;28;28760;-95
2022/12/13 05:52:38;;;;;;;;;0.00;0.00;;;;;;;;5035787;28;28468;-96
2022/12/13 05:55:03;;;;;;;;;0.00;0.00;;;;;;;;5036225;28;27895;-95
2022/12/13 05:57:28;;;;;;;;;0.00;0.00;;;;;;;;5036111;28;29909;-95
2022/12/13 05:59:53;;;;;;;;;0.00;0.00;;;;;;;;5035766;28;29740;-94
2022/12/13 06:02:19;;;;;;;;;0.00;0.00;;;;;;;;5036229;28;28486;-95
2022/12/13 06:04:44;;;;;;;;;0.00;0.00;;;;;;;;5036097;28;28662;-95
2022/12/13 06:07:10;;;;;;;;;0.00;0.00;;;;;;;;5034979;28;29677;-95
2022/12/13 06:09:35;;;;;;;;;0.00;0.00;;;;;;;;5036106;28;28516;-95
2022/12/13 06:12:00;;;;;;;;;0.00;0.00;;;;;;;;5036138;28;28655;-95
2022/12/13 06:14:25;;;;;;;;;4.00;4.00;;;;;;;;5036790;28;28421;-95
2022/12/13 06:16:51;;;;;;;;;0.00;0.00;;;;;;;;5040098;28;29976;-96
2022/12/13 06:19:16;;;;;;;;;1.50;1.50;;;;;;;;5035817;28;28772;-96
2022/12/13 06:21:41;;;;;;;;;0.00;0.00;;;;;;;;5035675;28;28356;-95
2022/12/13 06:24:07;;;;;;;;;0.00;0.00;;;;;;;;5035343;28;28772;-95
2022/12/13 06:26:32;;;;;;;;;0.00;0.00;;;;;;;;5035723;28;30201;-96
2022/12/13 06:28:58;;;;;;;;;0.00;0.00;;;;;;;;5035762;28;29291;-96
2022/12/13 06:31:23;;;;;;;;;0.00;0.00;;;;;;;;5035924;28;28479;-94
2022/12/13 06:33:49;;;;;;;;;0.00;0.00;;;;;;;;5036083;28;27954;-95
2022/12/13 06:36:14;;;;;;;;;0.00;0.00;;;;;;;;5034686;28;29996;-96
2022/12/13 06:38:39;;;;;;;;;0.00;0.00;;;;;;;;5035605;28;29532;-96
2022/12/13 06:41:08;;;;;;;;;0.00;0.00;;;;;;;;5035285;28;28411;-95
2022/12/13 06:43:34;;;;;;;;;0.00;0.00;;;;;;;;5035529;28;28541;-95
2022/12/13 06:46:01;;;;;;;;;0.00;0.00;;;;;;;;5035581;28;29789;-96
2022/12/13 06:48:26;;;;;;;;;0.00;0.00;;;;;;;;5035624;28;28646;-95
2022/12/13 06:50:51;;;;;;;;;0.00;0.00;;;;;;;;5034656;28;28436;-95
2022/12/13 06:53:16;;;;;;;;;0.00;0.00;;;;;;;;5035462;28;28325;-96
2022/12/13 06:55:42;;;;;;;;;0.00;0.00;;;;;;;;5035833;28;29850;-94
2022/12/13 06:58:07;;;;;;;;;0.00;0.00;;;;;;;;5035337;28;29440;-95
2022/12/13 07:00:32;;;;;;;;;0.00;0.00;;;;;;;;5035457;28;28479;-94
2022/12/13 07:02:57;;;;;;;;;0.00;0.00;;;;;;;;5039265;28;27971;-96
2022/12/13 07:05:23;;;;;;;;;0.00;0.00;;;;;;;;5034939;28;29790;-94
2022/12/13 07:07:49;;;;;;;;;0.00;0.00;;;;;;;;5034761;28;28584;-95
2022/12/13 07:10:14;;;;;;;;;0.00;0.00;;;;;;;;5035860;28;28328;-96
2022/12/13 07:12:39;;;;;;;;;1.00;1.00;;;;;;;;5036054;28;28459;-94
2022/12/13 07:15:05;;;;;;;;;0.00;0.00;;;;;;;;5038160;28;29659;-95
2022/12/13 07:17:30;;;;;;;;;0.00;0.00;;;;;;;;5036308;28;28543;-95
2022/12/13 07:19:55;;;;;;;;;0.00;0.00;;;;;;;;5035598;28;28490;-96
2022/12/13 07:22:20;;;;;;;;;0.00;0.00;;;;;;;;5036122;28;28626;-95
2022/12/13 07:24:46;;;;;;;;;0.00;0.00;;;;;;;;5037327;28;30055;-89
2022/12/13 07:27:11;;;;;;;;;0.00;0.00;;;;;;;;5050951;28;28506;-89
2022/12/13 07:29:36;;;;;;;;;0.00;0.00;;;;;;;;5054485;28;28373;-92
2022/12/13 07:32:01;;;;;;;;;0.00;0.00;;;;;;;;5056255;28;28701;-89
2022/12/13 07:34:26;;;;;;;;;0.00;0.00;;;;;;;;5033097;28;29872;-91
2022/12/13 07:36:52;;;;;;;;;0.00;0.00;;;;;;;;5033687;28;28401;-94
2022/12/13 07:39:17;;;;;;;;;0.00;0.00;;;;;;;;5033682;28;28430;-91
2022/12/13 07:41:42;;;;;;;;;0.00;0.00;;;;;;;;5050823;28;28299;-90
2022/12/13 07:44:07;;;;;;;;;0.00;0.00;;;;;;;;5033619;28;29866;-90
2022/12/13 07:46:32;;;;;;;;;0.00;0.00;;;;;;;;5028801;28;29453;-90
2022/12/13 07:48:58;;;;;;;;;0.00;0.00;;;;;;;;5027408;28;28822;-89
2022/12/13 07:51:23;;;;;;;;;0.00;0.00;;;;;;;;5024690;28;28917;-93
2022/12/13 07:53:48;;;;;;;;;0.00;0.00;;;;;;;;5030522;28;30647;-90
2022/12/13 07:56:13;;;;;;;;;0.00;0.00;;;;;;;;5045678;28;28847;-91
2022/12/13 07:58:41;;;;;;;;;0.00;0.00;;;;;;;;5045217;28;28598;-89
2022/12/13 08:01:07;;;;;;;;;0.00;0.00;;;;;;;;5028374;28;28738;-91
2022/12/13 08:03:32;;;;;;;;;0.00;0.00;;;;;;;;5024472;28;30816;-89
2022/12/13 08:05:58;;;;;;;;;9.00;7.00;;;;;;;;5027295;28;29386;-89
2022/12/13 08:08:23;;;;;;;;;1.00;1.00;;;;;;;;5028169;28;28473;-89
2022/12/13 08:10:48;;;;;;;;;0.00;0.00;;;;;;;;5044812;28;28712;-89
2022/12/13 08:13:13;;;;;;;;;0.00;0.00;;;;;;;;5015221;28;30250;-89
2022/12/13 08:15:39;;;;;;;;;3.00;3.00;;;;;;;;5042472;28;28451;-89
2022/12/13 08:18:04;;;;;;;;;0.00;0.00;;;;;;;;5028508;28;28531;-89
2022/12/13 08:20:29;;;;;;;;;0.00;0.00;;;;;;;;5047539;28;27850;-88
2022/12/13 08:22:55;;;;;;;;;0.25;0.25;;;;;;;;5022732;28;30037;-89
2022/12/13 08:25:21;;;;;;;;;0.00;0.00;;;;;;;;5035058;28;30228;-89
2022/12/13 08:27:46;;;;;;;;;0.00;0.00;;;;;;;;5028960;28;28460;-89
2022/12/13 08:30:11;;;;;;;;;0.00;0.00;;;;;;;;5026102;28;27915;-90
2022/12/13 08:32:36;;;;;;;;;0.00;0.00;;;;;;;;5028446;28;30069;-91
2022/12/13 08:35:02;;;;;;;;;0.00;0.00;;;;;;;;5028025;28;28621;-95
2022/12/13 08:37:27;;;;;;;;;0.00;0.00;;;;;;;;5032686;28;28779;-93
2022/12/13 08:39:52;;;;;;;;;5.75;5.75;;;;;;;;5034436;28;27915;-92
2022/12/13 08:42:17;;;;;;;;;14.67;14.67;;;;;;;;5025735;28;29863;-90
2022/12/13 08:44:43;;;;;;;;;0.00;0.00;;;;;;;;5036609;28;28560;-93
2022/12/13 08:47:08;;;;;;;;;0.00;0.00;;;;;;;;5047685;28;28781;-92
2022/12/13 08:49:34;;;;;;;;;1.00;1.00;;;;;;;;5030770;28;29067;-95
2022/12/13 08:51:59;;;;;;;;;0.00;0.00;;;;;;;;5047720;28;28509;-96
2022/12/13 08:54:24;;;;;;;;;0.75;0.75;;;;;;;;5032823;28;28625;-94
2022/12/13 08:56:50;;;;;;;;;0.00;0.00;;;;;;;;5031977;28;28547;-93
2022/12/13 08:59:15;;;;;;;;;1.00;1.00;;;;;;;;5033971;28;27883;-96
2022/12/13 09:01:40;;;;;;;;;0.00;0.00;;;;;;;;5033189;28;29872;-93
2022/12/13 09:04:05;;;;;;;;;0.00;0.00;;;;;;;;5029023;28;28739;-93
2022/12/13 09:06:31;;;;;;;;;0.00;0.00;;;;;;;;5055617;28;28356;-96
2022/12/13 09:08:59;;;;;;;;;0.00;0.00;;;;;;;;5167189;23;28846;-96
2022/12/13 09:11:24;;;;;;;;;0.00;0.00;;;;;;;;5045719;28;28590;-96
2022/12/13 09:13:50;;;;;;;;;0.33;0.33;;;;;;;;5038162;28;28481;-94
2022/12/13 09:16:18;;;;;;;;;0.00;0.00;;;;;;;;5045492;28;27983;-96
2022/12/13 09:18:44;;;;;;;;;0.00;0.00;;;;;;;;5031169;28;28034;-95
2022/12/13 09:21:10;;;;;;;;;0.00;0.00;;;;;;;;5022716;28;28344;-93
2022/12/13 09:23:35;;;;;;;;;4.00;4.00;;;;;;;;5035285;28;27911;-96
2022/12/13 09:26:01;;;;;;;;;0.00;0.00;;;;;;;;5013681;28;28042;-95
2022/12/13 09:28:26;;;;;;;;;0.00;0.00;;;;;;;;5035260;28;27891;-95
2022/12/13 09:43:50;;;;;;;;;0.00;0.00;;;;;;;;986663;22;29070;-90
2022/12/13 09:46:36;;;;;;;;;0.00;0.00;;;;;;;;5011868;28;28225;-89
2022/12/13 09:49:03;;;;;;;;;0.75;0.75;;;;;;;;5000899;28;28396;-93
2022/12/13 09:51:30;;;;;;;;;0.00;0.00;;;;;;;;4975453;28;30061;-91
2022/12/13 09:53:55;;;;;;;;;0.00;0.00;;;;;;;;4994044;28;28529;-89
2022/12/13 09:56:21;;;;;;;;;0.00;0.00;;;;;;;;4992727;28;28625;-88
2022/12/13 09:58:51;;;;;;;;;0.00;0.00;;;;;;;;4996371;28;28504;-88
2022/12/13 10:01:16;;;;;;;;;0.00;0.00;;;;;;;;4984807;28;30641;-90
2022/12/13 10:03:45;;;;;;;;;0.00;0.00;;;;;;;;5003539;28;28383;-91
2022/12/13 10:06:15;;;;;;;;;0.00;0.00;;;;;;;;4987940;28;28533;-90
2022/12/13 10:08:44;;;;;;;;;0.00;0.00;;;;;;;;4999469;28;28540;-88
2022/12/13 10:11:17;;;;;;;;;0.00;0.00;;;;;;;;4992904;28;30610;-93
2022/12/13 10:13:44;;;;;;;;;0.00;0.00;;;;;;;;4996273;28;28406;-96
2022/12/13 10:16:27;;;;;;;;;0.00;0.00;;;;;;;;5013530;28;28509;-91
2022/12/13 10:18:53;;;;;;;;;0.00;0.00;;;;;;;;4998995;28;27911;-93
2022/12/13 10:21:24;;;;;;;;;0.00;0.00;;;;;;;;5009408;28;28519;-90
2022/12/13 10:23:49;;;;;;;;;0.00;0.00;;;;;;;;4982696;28;28642;-90
2022/12/13 10:26:14;;;;;;;;;0.00;0.00;;;;;;;;4989366;28;28634;-92
2022/12/13 10:28:40;;;;;;;;;0.00;0.00;;;;;;;;4990741;28;28486;-93
2022/12/13 10:31:06;;;;;;;;;0.00;0.00;;;;;;;;5001541;28;28641;-94
2022/12/13 10:33:36;;;;;;;;;0.00;0.00;;;;;;;;4982967;28;28521;-93
2022/12/13 10:36:04;;;;;;;;;0.00;0.00;;;;;;;;4991281;28;28906;-95
2022/12/13 10:38:30;;;;;;;;;0.00;0.00;;;;;;;;5006296;28;28898;-93
2022/12/13 10:40:55;;;;;;;;;0.00;0.00;;;;;;;;5006402;28;29446;-94
2022/12/13 10:43:22;;;;;;;;;0.00;0.00;;;;;;;;4986264;28;28756;-93
2022/12/13 10:46:00;;;;;;;;;0.00;0.00;;;;;;;;4988211;28;28548;-96
2022/12/13 10:48:31;;;;;;;;;0.00;0.00;;;;;;;;4994090;28;28587;-95
2022/12/13 10:51:16;;;;;;;;;0.00;0.00;;;;;;;;5007756;28;28550;-94
2022/12/13 10:53:50;;;;;;;;;0.00;0.00;;;;;;;;5004381;28;29152;-89
2022/12/13 10:56:17;;;;;;;;;0.00;0.00;;;;;;;;4998841;28;28473;-92
2022/12/13 10:58:45;;;;;;;;;0.00;0.00;;;;;;;;4980824;28;28652;-96
2022/12/13 11:01:33;;;;;;;;;2.00;2.00;;;;;;;;5006044;28;29794;-96
2022/12/13 11:04:03;;;;;;;;;0.00;0.00;;;;;;;;5030290;28;27812;-96
2022/12/13 11:06:46;;;;;;;;;0.00;0.00;;;;;;;;5000671;28;27889;-96
2022/12/13 11:09:35;;;;;;;;;3.00;3.00;;;;;;;;5004381;28;27932;-96
2022/12/13 11:12:01;;;;;;;;;0.00;0.00;;;;;;;;5067507;23;29851;-94
2022/12/13 11:14:35;;;;;;;;;5.00;5.00;;;;;;;;5038311;28;29250;-96
2022/12/13 11:17:12;;;;;;;;;0.00;0.00;;;;;;;;5046736;28;28490;-95
2022/12/13 11:19:39;;;;;;;;;0.00;0.00;;;;;;;;5033164;28;28490;-95
2022/12/13 11:25:02;;;;;;;;;0.00;0.00;;;;;;;;5041978;28;28373;-96
2022/12/13 11:27:50;;;;;;;;;0.00;0.00;;;;;;;;5024490;28;28387;-95
2022/12/13 11:30:21;;;;;;;;;0.00;0.00;;;;;;;;5029578;28;28429;-95
2022/12/13 11:32:50;;;;;;;;;0.00;0.00;;;;;;;;5009501;28;29953;-94
2022/12/13 11:35:28;;;;;;;;;0.00;0.00;;;;;;;;5012916;28;29152;-95
2022/12/13 11:38:00;;;;;;;;;0.00;0.00;;;;;;;;5017896;28;27879;-96
2022/12/13 11:40:43;;;;;;;;;0.00;0.00;;;;;;;;5016648;28;28637;-93
2022/12/13 11:43:28;;;;;;;;;0.00;0.00;;;;;;;;5015911;28;29812;-94
2022/12/13 11:45:57;;;;;;;;;0.00;0.00;;;;;;;;5012341;28;29603;-95
2022/12/13 11:48:27;;;;;;;;;0.00;0.00;;;;;;;;5030668;28;27906;-96
2022/12/13 11:50:55;;;;;;;;;0.00;0.00;;;;;;;;5012507;28;28594;-94
2022/12/13 11:53:34;;;;;;;;;0.00;0.00;;;;;;;;5034769;28;29191;-92
2022/12/13 11:55:59;;;;;;;;;0.00;0.00;;;;;;;;5009261;28;29605;-92
2022/12/13 11:58:43;;;;;;;;;23.50;23.50;;;;;;;;5016336;28;28649;-95
2022/12/13 12:01:11;;;;;;;;;0.00;0.00;;;;;;;;5044773;28;28058;-94
2022/12/13 12:03:40;;;;;;;;;1.00;1.00;;;;;;;;5012372;28;31072;-93
2022/12/13 12:06:22;;;;;;;;;0.00;0.00;;;;;;;;5016058;28;28615;-91
2022/12/13 12:09:00;;;;;;;;;0.00;0.00;;;;;;;;5012029;28;28577;-92
2022/12/13 12:11:34;;;;;;;;;0.00;0.00;;;;;;;;5013182;28;28647;-93
2022/12/13 12:14:04;;;;;;;;;0.00;0.00;;;;;;;;5033628;28;28643;-93
2022/12/13 12:16:33;;;;;;;;;0.00;0.00;;;;;;;;5019642;28;28684;-93
2022/12/13 12:18:58;;;;;;;;;0.00;0.00;;;;;;;;5015335;28;27993;-94
2022/12/13 12:21:23;;;;;;;;;0.00;0.00;;;;;;;;5019114;28;28030;-96
2022/12/13 12:23:52;;;;;;;;;0.00;0.00;;;;;;;;5044430;28;29996;-95
2022/12/13 12:26:19;;;;;;;;;0.00;0.00;;;;;;;;5014124;28;28628;-95
2022/12/13 12:29:06;;;;;;;;;0.00;0.00;;;;;;;;5017932;28;28588;-91
2022/12/13 12:31:40;;;;;;;;;0.00;0.00;;;;;;;;5017181;28;28459;-96
2022/12/13 12:34:22;;;;;;;;;0.00;0.00;;;;;;;;5013536;28;30978;-93
2022/12/13 12:36:47;;;;;;;;;0.00;0.00;;;;;;;;5028935;28;29443;-94
2022/12/13 12:39:15;;;;;;;;;1.00;1.00;;;;;;;;5014075;28;28329;-90
2022/12/13 12:41:44;;;;;;;;;0.00;0.00;;;;;;;;5014560;28;28421;-93
2022/12/13 12:44:12;;;;;;;;;1.00;1.00;;;;;;;;5007935;28;29841;-93
2022/12/13 12:46:49;;;;;;;;;0.00;0.00;;;;;;;;5012804;28;29514;-93
2022/12/13 12:49:33;;;;;;;;;0.00;0.00;;;;;;;;5009203;28;28721;-93
2022/12/13 12:52:03;;;;;;;;;0.00;0.00;;;;;;;;5046528;28;28577;-93
2022/12/13 12:54:37;;;;;;;;;4.00;4.00;;;;;;;;5016194;28;30305;-92
2022/12/13 12:57:12;;;;;;;;;1.00;1.00;;;;;;;;5006468;28;28712;-92
2022/12/13 12:59:49;;;;;;;;;0.00;0.00;;;;;;;;5031023;28;28839;-92
2022/12/13 13:02:17;;;;;;;;;0.00;0.00;;;;;;;;5009124;28;28484;-92
2022/12/13 13:04:49;;;;;;;;;0.00;0.00;;;;;;;;5013667;28;29868;-92
2022/12/13 13:07:18;;;;;;;;;0.00;0.00;;;;;;;;5008877;28;28698;-92
2022/12/13 13:09:43;;;;;;;;;0.00;0.00;;;;;;;;5014380;28;28657;-93
2022/12/13 13:12:09;;;;;;;;;0.00;0.00;;;;;;;;5012279;28;28525;-93
2022/12/13 13:14:35;;;;;;;;;0.00;0.00;;;;;;;;5042814;28;30763;-93
2022/12/13 13:17:16;;;;;;;;;0.00;0.00;;;;;;;;5007167;28;28701;-93
2022/12/13 13:19:41;;;;;;;;;0.00;0.00;;;;;;;;5009781;28;28915;-93
2022/12/13 13:22:25;;;;;;;;;0.00;0.00;;;;;;;;5012822;28;28495;-93
2022/12/13 13:24:59;;;;;;;;;0.00;0.00;;;;;;;;5008847;28;30300;-93
2022/12/13 13:27:29;;;;;;;;;1.00;1.00;;;;;;;;5008375;28;28643;-93
2022/12/13 13:30:03;;;;;;;;;0.00;0.00;;;;;;;;5014862;28;28367;-93
2022/12/13 13:32:30;;;;;;;;;13.50;13.50;;;;;;;;5011177;28;28539;-92
2022/12/13 13:35:15;;;;;;;;;0.00;0.00;;;;;;;;5010795;28;30229;-92
2022/12/13 13:37:45;;;;;;;;;0.00;0.00;;;;;;;;5008459;28;28873;-92
2022/12/13 13:40:16;;;;;;;;;0.00;0.00;;;;;;;;5003539;28;28444;-92
2022/12/13 13:42:56;;;;;;;;;0.00;0.00;;;;;;;;5010270;28;28610;-93
2022/12/13 13:45:23;;;;;;;;;0.33;0.33;;;;;;;;5002960;28;30129;-93
2022/12/13 13:47:58;;;;;;;;;0.00;0.00;;;;;;;;5010321;28;29447;-91
2022/12/13 13:50:29;;;;;;;;;0.00;0.00;;;;;;;;5027353;28;27801;-93
2022/12/13 13:52:54;;;;;;;;;0.00;0.00;;;;;;;;5012474;28;28563;-93
2022/12/13 13:55:25;;;;;;;;;0.00;0.00;;;;;;;;5010306;28;30000;-93
2022/12/13 13:57:50;;;;;;;;;0.00;0.00;;;;;;;;5018971;28;28455;-92
2022/12/13 14:00:20;;;;;;;;;0.00;0.00;;;;;;;;5027528;28;10892;-92
2022/12/13 14:03:24;;;;;;;;;0.00;0.00;;;;;;;;5021881;28;28485;-93
2022/12/13 14:05:52;;;;;;;;;0.00;0.00;;;;;;;;5004364;28;30651;-93
2022/12/13 14:08:37;;;;;;;;;0.00;0.00;;;;;;;;5010109;28;28889;-92
2022/12/13 14:11:02;;;;;;;;;0.00;0.00;;;;;;;;5011412;28;28530;-93
2022/12/13 14:13:42;;;;;;;;;0.00;0.00;;;;;;;;5009910;28;28487;-94
2022/12/13 14:16:26;;;;;;;;;0.00;0.00;;;;;;;;5008563;28;29794;-94
2022/12/13 14:18:58;;;;;;;;;12.00;12.00;;;;;;;;5007130;28;29836;-94
2022/12/13 14:21:45;;;;;;;;;0.00;0.00;;;;;;;;5006843;28;28388;-94
2022/12/13 14:24:13;;;;;;;;;0.00;0.00;;;;;;;;5007416;28;29091;-93
2022/12/13 14:26:38;;;;;;;;;0.00;0.00;;;;;;;;5001548;28;29821;-94
2022/12/13 14:29:11;;;;;;;;;0.00;0.00;;;;;;;;5008813;28;29813;-93
2022/12/13 14:31:40;;;;;;;;;0.00;0.00;;;;;;;;5009940;28;28747;-93
2022/12/13 14:34:06;;;;;;;;;0.00;0.00;;;;;;;;5004125;28;28443;-93
2022/12/13 14:36:34;;;;;;;;;0.00;0.00;;;;;;;;5009683;28;29857;-93
2022/12/13 14:39:04;;;;;;;;;4.00;4.00;;;;;;;;5009210;28;28630;-92
2022/12/13 14:41:29;;;;;;;;;0.00;0.00;;;;;;;;5001072;28;28480;-93
2022/12/13 14:43:54;;;;;;;;;0.00;0.00;;;;;;;;5007470;28;28671;-93
2022/12/13 14:46:19;;;;;;;;;1.00;1.00;;;;;;;;5010484;28;30118;-93
2022/12/13 14:48:45;;;;;;;;;0.00;0.00;;;;;;;;5009583;28;28778;-93
2022/12/13 14:51:28;;;;;;;;;0.00;0.00;;;;;;;;5008295;28;28878;-94
2022/12/13 14:53:54;;;;;;;;;0.00;0.00;;;;;;;;5009541;28;28502;-93
2022/12/13 14:56:19;;;;;;;;;13.00;13.00;;;;;;;;5009175;28;29701;-91
2022/12/13 14:58:56;;;;;;;;;0.00;0.00;;;;;;;;5009893;28;28928;-93
2022/12/13 15:01:24;;;;;;;;;0.00;0.00;;;;;;;;5006646;28;28687;-94
2022/12/13 15:03:49;;;;;;;;;0.00;0.00;;;;;;;;5009364;28;28776;-92
2022/12/13 15:06:16;;;;;;;;;0.00;0.00;;;;;;;;5000904;28;30595;-93
2022/12/13 15:08:43;;;;;;;;;0.00;0.00;;;;;;;;5011234;28;27901;-92
2022/12/13 15:11:09;;;;;;;;;0.00;0.00;;;;;;;;5007223;28;28558;-93
2022/12/13 15:13:37;;;;;;;;;0.00;0.00;;;;;;;;5008585;28;28539;-94
2022/12/13 15:16:06;;;;;;;;;9.00;9.00;;;;;;;;5007099;28;29831;-93
2022/12/13 15:18:31;;;;;;;;;0.00;0.00;;;;;;;;5009320;28;28545;-93
2022/12/13 15:20:57;;;;;;;;;0.00;0.00;;;;;;;;5004212;28;28569;-93
2022/12/13 15:23:24;;;;;;;;;0.00;0.00;;;;;;;;5008882;28;28866;-93